sensor_id;sensor_type;location;lat;lon;timestamp;pressure;altitude;pressure_sealevel;temperature;humidity
83273;BME280;73177;51.584;5.188;2024-02-26T00:00:05;99796.91;;;12.40;56.74
83273;BME280;73177;51.584;5.188;2024-02-26T00:02:35;99793.50;;;12.96;55.35
83273;BME280;73177;51.584;5.188;2024-02-26T00:05:06;99788.28;;;12.52;56.04
83273;BME280;73177;51.584;5.188;2024-02-26T00:07:32;99792.28;;;12.87;55.24
83273;BME280;73177;51.584;5.188;2024-02-26T00:09:58;99808.13;;;12.57;56.63
83273;BME280;73177;51.584;5.188;2024-02-26T00:12:23;99814.38;;;12.41;56.86
83273;BME280;73177;51.584;5.188;2024-02-26T00:14:49;99806.31;;;12.44;57.13
83273;BME280;73177;51.584;5.188;2024-02-26T00:17:15;99821.47;;;12.09;58.24
83273;BME280;73177;51.584;5.188;2024-02-26T00:19:40;99816.00;;;12.28;58.05
83273;BME280;73177;51.584;5.188;2024-02-26T00:22:06;99822.16;;;12.12;59.21
83273;BME280;73177;51.584;5.188;2024-02-26T00:24:31;99805.13;;;11.73;60.56
83273;BME280;73177;51.584;5.188;2024-02-26T00:26:56;99806.66;;;11.77;61.10
83273;BME280;73177;51.584;5.188;2024-02-26T00:29:22;99801.94;;;12.13;60.32
83273;BME280;73177;51.584;5.188;2024-02-26T00:31:47;99799.09;;;12.02;59.54
83273;BME280;73177;51.584;5.188;2024-02-26T00:34:12;99804.69;;;11.65;61.15
83273;BME280;73177;51.584;5.188;2024-02-26T00:36:38;99807.47;;;11.62;61.11
83273;BME280;73177;51.584;5.188;2024-02-26T00:39:03;99807.69;;;11.74;60.16
83273;BME280;73177;51.584;5.188;2024-02-26T00:41:29;99804.28;;;11.72;60.27
83273;BME280;73177;51.584;5.188;2024-02-26T00:43:54;99803.31;;;12.04;59.71
83273;BME280;73177;51.584;5.188;2024-02-26T00:46:19;99795.31;;;11.92;59.62
83273;BME280;73177;51.584;5.188;2024-02-26T00:48:45;99792.06;;;12.02;60.22
83273;BME280;73177;51.584;5.188;2024-02-26T00:51:10;99791.72;;;11.93;59.82
83273;BME280;73177;51.584;5.188;2024-02-26T00:53:36;99791.50;;;12.27;59.38
83273;BME280;73177;51.584;5.188;2024-02-26T00:56:01;99804.47;;;11.85;60.29
83273;BME280;73177;51.584;5.188;2024-02-26T00:58:27;99800.72;;;11.89;60.29
83273;BME280;73177;51.584;5.188;2024-02-26T01:00:52;99787.72;;;12.17;59.90
83273;BME280;73177;51.584;5.188;2024-02-26T01:03:18;99791.13;;;12.63;58.20
83273;BME280;73177;51.584;5.188;2024-02-26T01:05:44;99791.84;;;12.51;57.85
83273;BME280;73177;51.584;5.188;2024-02-26T01:08:09;99795.41;;;12.50;58.85
83273;BME280;73177;51.584;5.188;2024-02-26T01:10:34;99793.78;;;12.33;59.31
83273;BME280;73177;51.584;5.188;2024-02-26T01:13:00;99800.44;;;12.68;57.52
83273;BME280;73177;51.584;5.188;2024-02-26T01:15:25;99802.84;;;13.01;57.76
83273;BME280;73177;51.584;5.188;2024-02-26T01:17:51;99794.66;;;12.92;58.19
83273;BME280;73177;51.584;5.188;2024-02-26T01:20:17;99795.63;;;12.31;59.50
83273;BME280;73177;51.584;5.188;2024-02-26T01:22:43;99804.63;;;12.57;58.81
83273;BME280;73177;51.584;5.188;2024-02-26T01:25:08;99808.38;;;12.82;58.04
83273;BME280;73177;51.584;5.188;2024-02-26T01:27:35;99805.75;;;12.53;58.32
83273;BME280;73177;51.584;5.188;2024-02-26T01:30:01;99807.84;;;12.32;60.09
83273;BME280;73177;51.584;5.188;2024-02-26T01:32:28;99812.91;;;12.21;59.73
83273;BME280;73177;51.584;5.188;2024-02-26T01:34:53;99815.19;;;12.11;60.28
83273;BME280;73177;51.584;5.188;2024-02-26T01:37:18;99812.06;;;12.05;59.88
83273;BME280;73177;51.584;5.188;2024-02-26T01:39:44;99817.22;;;12.06;60.59
83273;BME280;73177;51.584;5.188;2024-02-26T01:42:09;99812.91;;;12.51;59.49
83273;BME280;73177;51.584;5.188;2024-02-26T01:44:34;99813.81;;;12.50;59.60
83273;BME280;73177;51.584;5.188;2024-02-26T01:47:00;99813.75;;;12.51;59.01
83273;BME280;73177;51.584;5.188;2024-02-26T01:49:27;99824.06;;;12.40;60.25
83273;BME280;73177;51.584;5.188;2024-02-26T01:51:52;99826.53;;;12.28;60.35
83273;BME280;73177;51.584;5.188;2024-02-26T01:54:18;99834.72;;;11.92;62.52
83273;BME280;73177;51.584;5.188;2024-02-26T01:56:43;99827.06;;;12.18;60.77
83273;BME280;73177;51.584;5.188;2024-02-26T01:59:09;99816.38;;;12.51;59.91
83273;BME280;73177;51.584;5.188;2024-02-26T02:01:35;99831.41;;;12.20;61.60
83273;BME280;73177;51.584;5.188;2024-02-26T02:04:01;99823.38;;;12.66;60.03
83273;BME280;73177;51.584;5.188;2024-02-26T02:06:27;99827.59;;;12.09;62.04
83273;BME280;73177;51.584;5.188;2024-02-26T02:08:54;99833.78;;;12.24;61.88
83273;BME280;73177;51.584;5.188;2024-02-26T02:11:20;99827.34;;;12.44;61.85
83273;BME280;73177;51.584;5.188;2024-02-26T02:13:45;99837.38;;;12.37;61.49
83273;BME280;73177;51.584;5.188;2024-02-26T02:16:11;99833.06;;;12.21;63.53
83273;BME280;73177;51.584;5.188;2024-02-26T02:18:37;99841.50;;;12.11;64.32
83273;BME280;73177;51.584;5.188;2024-02-26T02:21:02;99834.25;;;12.31;62.35
83273;BME280;73177;51.584;5.188;2024-02-26T02:23:28;99843.00;;;12.15;63.68
83273;BME280;73177;51.584;5.188;2024-02-26T02:25:54;99843.25;;;12.11;64.15
83273;BME280;73177;51.584;5.188;2024-02-26T02:28:20;99831.41;;;12.20;63.21
83273;BME280;73177;51.584;5.188;2024-02-26T02:30:46;99836.16;;;11.82;65.05
83273;BME280;73177;51.584;5.188;2024-02-26T02:33:11;99844.09;;;11.65;64.95
83273;BME280;73177;51.584;5.188;2024-02-26T02:35:37;99844.66;;;11.38;66.61
83273;BME280;73177;51.584;5.188;2024-02-26T02:38:03;99849.88;;;11.23;66.61
83273;BME280;73177;51.584;5.188;2024-02-26T02:40:28;99852.25;;;11.27;67.08
83273;BME280;73177;51.584;5.188;2024-02-26T02:42:54;99855.50;;;11.32;67.04
83273;BME280;73177;51.584;5.188;2024-02-26T02:45:19;99857.84;;;11.21;68.02
83273;BME280;73177;51.584;5.188;2024-02-26T02:47:44;99867.81;;;11.15;68.03
83273;BME280;73177;51.584;5.188;2024-02-26T02:50:10;99861.09;;;11.09;67.61
83273;BME280;73177;51.584;5.188;2024-02-26T02:52:35;99860.69;;;11.17;68.35
83273;BME280;73177;51.584;5.188;2024-02-26T02:55:01;99864.47;;;11.11;68.39
83273;BME280;73177;51.584;5.188;2024-02-26T02:57:26;99867.38;;;11.22;68.36
83273;BME280;73177;51.584;5.188;2024-02-26T02:59:51;99867.47;;;11.21;66.82
83273;BME280;73177;51.584;5.188;2024-02-26T03:02:17;99858.88;;;11.67;65.61
83273;BME280;73177;51.584;5.188;2024-02-26T03:04:42;99858.59;;;11.56;66.47
83273;BME280;73177;51.584;5.188;2024-02-26T03:07:07;99849.19;;;11.19;67.49
83273;BME280;73177;51.584;5.188;2024-02-26T03:09:33;99843.66;;;11.57;66.02
83273;BME280;73177;51.584;5.188;2024-02-26T03:11:58;99855.78;;;11.59;66.01
83273;BME280;73177;51.584;5.188;2024-02-26T03:14:23;99866.09;;;11.79;64.39
83273;BME280;73177;51.584;5.188;2024-02-26T03:16:53;99862.56;;;11.63;66.34
83273;BME280;73177;51.584;5.188;2024-02-26T03:19:19;99863.66;;;11.59;66.01
83273;BME280;73177;51.584;5.188;2024-02-26T03:21:44;99861.16;;;11.73;65.39
83273;BME280;73177;51.584;5.188;2024-02-26T03:24:09;99867.28;;;11.41;67.19
83273;BME280;73177;51.584;5.188;2024-02-26T03:26:36;99861.53;;;11.50;66.78
83273;BME280;73177;51.584;5.188;2024-02-26T03:29:01;99865.44;;;11.10;68.46
83273;BME280;73177;51.584;5.188;2024-02-26T03:31:27;99869.59;;;11.14;67.73
83273;BME280;73177;51.584;5.188;2024-02-26T03:33:53;99871.19;;;11.17;68.90
83273;BME280;73177;51.584;5.188;2024-02-26T03:36:18;99863.56;;;10.95;69.07
83273;BME280;73177;51.584;5.188;2024-02-26T03:38:43;99864.28;;;10.82;69.14
83273;BME280;73177;51.584;5.188;2024-02-26T03:41:09;99860.38;;;10.90;67.83
83273;BME280;73177;51.584;5.188;2024-02-26T03:43:34;99865.81;;;11.03;69.09
83273;BME280;73177;51.584;5.188;2024-02-26T03:45:59;99869.16;;;10.89;68.96
83273;BME280;73177;51.584;5.188;2024-02-26T03:48:25;99871.84;;;10.53;69.01
83273;BME280;73177;51.584;5.188;2024-02-26T03:50:50;99876.00;;;10.57;69.69
83273;BME280;73177;51.584;5.188;2024-02-26T03:53:16;99861.22;;;10.73;69.36
83273;BME280;73177;51.584;5.188;2024-02-26T03:55:41;99851.50;;;10.58;70.61
83273;BME280;73177;51.584;5.188;2024-02-26T03:58:07;99864.44;;;10.44;70.04
83273;BME280;73177;51.584;5.188;2024-02-26T04:00:33;99861.53;;;10.15;71.21
83273;BME280;73177;51.584;5.188;2024-02-26T04:02:58;99866.38;;;10.92;69.38
83273;BME280;73177;51.584;5.188;2024-02-26T04:05:23;99870.84;;;10.90;68.50
83273;BME280;73177;51.584;5.188;2024-02-26T04:07:49;99869.19;;;11.05;67.79
83273;BME280;73177;51.584;5.188;2024-02-26T04:10:14;99873.78;;;11.01;68.46
83273;BME280;73177;51.584;5.188;2024-02-26T04:12:40;99880.13;;;11.30;67.01
83273;BME280;73177;51.584;5.188;2024-02-26T04:15:07;99861.25;;;11.06;67.77
83273;BME280;73177;51.584;5.188;2024-02-26T04:17:33;99873.31;;;10.93;68.85
83273;BME280;73177;51.584;5.188;2024-02-26T04:19:58;99865.91;;;10.67;69.89
83273;BME280;73177;51.584;5.188;2024-02-26T04:22:24;99872.59;;;11.07;68.54
83273;BME280;73177;51.584;5.188;2024-02-26T04:24:49;99872.41;;;10.94;68.95
83273;BME280;73177;51.584;5.188;2024-02-26T04:27:14;99880.47;;;10.72;68.10
83273;BME280;73177;51.584;5.188;2024-02-26T04:29:40;99885.47;;;11.11;68.47
83273;BME280;73177;51.584;5.188;2024-02-26T04:32:05;99886.06;;;11.33;67.63
83273;BME280;73177;51.584;5.188;2024-02-26T04:34:31;99877.97;;;11.21;67.94
83273;BME280;73177;51.584;5.188;2024-02-26T04:36:56;99884.91;;;11.39;67.73
83273;BME280;73177;51.584;5.188;2024-02-26T04:39:21;99888.63;;;11.18;67.53
83273;BME280;73177;51.584;5.188;2024-02-26T04:41:47;99887.72;;;11.19;67.87
83273;BME280;73177;51.584;5.188;2024-02-26T04:44:12;99896.50;;;11.35;66.81
83273;BME280;73177;51.584;5.188;2024-02-26T04:46:37;99900.41;;;11.43;67.75
83273;BME280;73177;51.584;5.188;2024-02-26T04:49:03;99896.31;;;11.05;68.14
83273;BME280;73177;51.584;5.188;2024-02-26T04:51:28;99892.63;;;11.25;68.09
83273;BME280;73177;51.584;5.188;2024-02-26T04:53:53;99899.69;;;11.57;66.63
83273;BME280;73177;51.584;5.188;2024-02-26T04:56:23;99895.84;;;11.47;66.15
83273;BME280;73177;51.584;5.188;2024-02-26T04:58:48;99898.66;;;11.27;67.59
83273;BME280;73177;51.584;5.188;2024-02-26T05:01:15;99903.97;;;11.42;66.51
83273;BME280;73177;51.584;5.188;2024-02-26T05:03:42;99902.38;;;11.23;67.70
83273;BME280;73177;51.584;5.188;2024-02-26T05:06:07;99904.63;;;11.13;66.95
83273;BME280;73177;51.584;5.188;2024-02-26T05:08:34;99911.19;;;11.22;67.97
83273;BME280;73177;51.584;5.188;2024-02-26T05:11:01;99913.31;;;11.48;67.24
83273;BME280;73177;51.584;5.188;2024-02-26T05:13:27;99911.19;;;11.22;66.34
83273;BME280;73177;51.584;5.188;2024-02-26T05:15:53;99912.88;;;11.23;67.77
83273;BME280;73177;51.584;5.188;2024-02-26T05:18:18;99901.94;;;11.15;66.52
83273;BME280;73177;51.584;5.188;2024-02-26T05:20:43;99927.09;;;11.02;67.71
83273;BME280;73177;51.584;5.188;2024-02-26T05:23:09;99905.09;;;11.21;67.03
83273;BME280;73177;51.584;5.188;2024-02-26T05:25:34;99911.13;;;11.23;66.80
83273;BME280;73177;51.584;5.188;2024-02-26T05:28:00;99911.44;;;11.17;66.36
83273;BME280;73177;51.584;5.188;2024-02-26T05:30:25;99929.28;;;10.77;67.90
83273;BME280;73177;51.584;5.188;2024-02-26T05:32:53;99922.31;;;10.93;65.76
83273;BME280;73177;51.584;5.188;2024-02-26T05:35:18;99926.75;;;10.56;67.36
83273;BME280;73177;51.584;5.188;2024-02-26T05:37:44;99935.53;;;11.08;66.88
83273;BME280;73177;51.584;5.188;2024-02-26T05:40:09;99931.28;;;11.56;64.77
83273;BME280;73177;51.584;5.188;2024-02-26T05:42:35;99930.59;;;10.85;66.96
83273;BME280;73177;51.584;5.188;2024-02-26T05:45:00;99938.94;;;11.10;66.24
83273;BME280;73177;51.584;5.188;2024-02-26T05:47:31;99920.31;;;11.15;67.12
83273;BME280;73177;51.584;5.188;2024-02-26T05:49:56;99939.44;;;11.34;65.93
83273;BME280;73177;51.584;5.188;2024-02-26T05:52:24;99932.06;;;11.40;65.75
83273;BME280;73177;51.584;5.188;2024-02-26T05:54:50;99945.56;;;10.83;66.27
83273;BME280;73177;51.584;5.188;2024-02-26T05:57:15;99949.59;;;10.90;66.37
83273;BME280;73177;51.584;5.188;2024-02-26T05:59:40;99950.94;;;10.80;67.24
83273;BME280;73177;51.584;5.188;2024-02-26T06:02:06;99947.81;;;11.08;66.68
83273;BME280;73177;51.584;5.188;2024-02-26T06:04:31;99958.34;;;11.06;66.53
83273;BME280;73177;51.584;5.188;2024-02-26T06:06:56;99958.38;;;11.23;65.76
83273;BME280;73177;51.584;5.188;2024-02-26T06:09:22;99963.75;;;10.86;66.91
83273;BME280;73177;51.584;5.188;2024-02-26T06:11:48;99965.88;;;11.31;66.57
83273;BME280;73177;51.584;5.188;2024-02-26T06:14:13;99964.38;;;10.91;67.53
83273;BME280;73177;51.584;5.188;2024-02-26T06:16:43;99981.22;;;11.04;67.01
83273;BME280;73177;51.584;5.188;2024-02-26T06:19:08;99963.78;;;11.37;66.33
83273;BME280;73177;51.584;5.188;2024-02-26T06:21:33;99981.44;;;11.34;66.10
83273;BME280;73177;51.584;5.188;2024-02-26T06:23:59;99981.38;;;11.18;65.86
83273;BME280;73177;51.584;5.188;2024-02-26T06:26:24;99989.72;;;11.43;64.58
83273;BME280;73177;51.584;5.188;2024-02-26T06:28:53;99986.81;;;10.62;67.71
83273;BME280;73177;51.584;5.188;2024-02-26T06:31:19;99991.22;;;10.79;67.95
83273;BME280;73177;51.584;5.188;2024-02-26T06:33:46;100001.88;;;10.76;67.86
83273;BME280;73177;51.584;5.188;2024-02-26T06:36:11;99989.94;;;10.88;68.10
83273;BME280;73177;51.584;5.188;2024-02-26T06:38:37;99992.94;;;10.97;68.82
83273;BME280;73177;51.584;5.188;2024-02-26T06:41:02;100011.81;;;11.39;66.43
83273;BME280;73177;51.584;5.188;2024-02-26T06:43:28;100007.16;;;10.93;67.82
83273;BME280;73177;51.584;5.188;2024-02-26T06:45:53;100010.25;;;11.01;67.44
83273;BME280;73177;51.584;5.188;2024-02-26T06:48:19;100007.09;;;11.46;66.29
83273;BME280;73177;51.584;5.188;2024-02-26T06:50:44;100015.19;;;10.90;67.74
83273;BME280;73177;51.584;5.188;2024-02-26T06:53:09;100008.22;;;10.53;68.40
83273;BME280;73177;51.584;5.188;2024-02-26T06:55:35;100025.59;;;10.37;68.35
83273;BME280;73177;51.584;5.188;2024-02-26T06:58:00;100029.31;;;10.69;69.63
83273;BME280;73177;51.584;5.188;2024-02-26T07:00:25;100032.72;;;10.71;68.59
83273;BME280;73177;51.584;5.188;2024-02-26T07:02:51;100019.28;;;10.96;68.26
83273;BME280;73177;51.584;5.188;2024-02-26T07:05:16;100026.59;;;10.89;68.27
83273;BME280;73177;51.584;5.188;2024-02-26T07:07:41;100034.78;;;10.83;68.02
83273;BME280;73177;51.584;5.188;2024-02-26T07:10:07;100024.78;;;11.08;67.22
83273;BME280;73177;51.584;5.188;2024-02-26T07:12:33;100042.44;;;11.05;69.01
83273;BME280;73177;51.584;5.188;2024-02-26T07:14:58;100051.41;;;11.01;68.16
83273;BME280;73177;51.584;5.188;2024-02-26T07:17:23;100059.09;;;10.68;66.37
83273;BME280;73177;51.584;5.188;2024-02-26T07:19:49;100059.81;;;10.71;68.39
83273;BME280;73177;51.584;5.188;2024-02-26T07:22:15;100062.91;;;11.15;67.40
83273;BME280;73177;51.584;5.188;2024-02-26T07:24:40;100065.16;;;11.06;67.46
83273;BME280;73177;51.584;5.188;2024-02-26T07:27:11;100066.19;;;10.66;68.54
83273;BME280;73177;51.584;5.188;2024-02-26T07:29:36;100074.56;;;10.74;68.78
83273;BME280;73177;51.584;5.188;2024-02-26T07:32:02;100072.84;;;10.92;68.15
83273;BME280;73177;51.584;5.188;2024-02-26T07:34:28;100071.16;;;10.72;67.65
83273;BME280;73177;51.584;5.188;2024-02-26T07:36:55;100064.31;;;10.87;68.53
83273;BME280;73177;51.584;5.188;2024-02-26T07:39:23;100080.41;;;10.98;68.51
83273;BME280;73177;51.584;5.188;2024-02-26T07:41:48;100080.72;;;10.92;67.03
83273;BME280;73177;51.584;5.188;2024-02-26T07:44:16;100090.44;;;10.71;68.40
83273;BME280;73177;51.584;5.188;2024-02-26T07:46:42;100076.88;;;11.16;66.36
83273;BME280;73177;51.584;5.188;2024-02-26T07:49:07;100091.22;;;11.09;66.05
83273;BME280;73177;51.584;5.188;2024-02-26T07:51:33;100091.50;;;10.86;67.97
83273;BME280;73177;51.584;5.188;2024-02-26T07:53:58;100095.81;;;10.87;67.60
83273;BME280;73177;51.584;5.188;2024-02-26T07:56:24;100097.97;;;11.14;66.40
83273;BME280;73177;51.584;5.188;2024-02-26T07:58:49;100103.34;;;10.75;68.14
83273;BME280;73177;51.584;5.188;2024-02-26T08:01:14;100110.81;;;11.02;67.39
83273;BME280;73177;51.584;5.188;2024-02-26T08:03:40;100112.31;;;11.07;66.97
83273;BME280;73177;51.584;5.188;2024-02-26T08:06:05;100116.44;;;11.13;66.64
83273;BME280;73177;51.584;5.188;2024-02-26T08:08:30;100118.13;;;10.95;66.49
83273;BME280;73177;51.584;5.188;2024-02-26T08:10:56;100113.38;;;11.22;65.79
83273;BME280;73177;51.584;5.188;2024-02-26T08:13:21;100103.91;;;11.18;66.61
83273;BME280;73177;51.584;5.188;2024-02-26T08:15:46;100121.91;;;11.08;66.51
83273;BME280;73177;51.584;5.188;2024-02-26T08:18:12;100126.47;;;11.58;66.04
83273;BME280;73177;51.584;5.188;2024-02-26T08:20:37;100136.38;;;11.34;66.35
83273;BME280;73177;51.584;5.188;2024-02-26T08:23:02;100139.78;;;11.36;66.38
83273;BME280;73177;51.584;5.188;2024-02-26T08:25:28;100145.31;;;11.48;66.35
83273;BME280;73177;51.584;5.188;2024-02-26T08:27:53;100140.19;;;11.28;66.34
83273;BME280;73177;51.584;5.188;2024-02-26T08:30:18;100135.84;;;11.27;67.42
83273;BME280;73177;51.584;5.188;2024-02-26T08:32:48;100149.97;;;11.25;66.80
83273;BME280;73177;51.584;5.188;2024-02-26T08:35:13;100149.63;;;11.14;67.05
83273;BME280;73177;51.584;5.188;2024-02-26T08:37:39;100160.44;;;10.89;66.45
83273;BME280;73177;51.584;5.188;2024-02-26T08:40:07;100161.88;;;11.32;65.97
83273;BME280;73177;51.584;5.188;2024-02-26T08:42:32;100166.94;;;11.89;65.63
83273;BME280;73177;51.584;5.188;2024-02-26T08:44:58;100168.41;;;11.59;65.48
83273;BME280;73177;51.584;5.188;2024-02-26T08:47:26;100168.41;;;11.59;66.25
83273;BME280;73177;51.584;5.188;2024-02-26T08:49:52;100163.00;;;11.98;64.66
83273;BME280;73177;51.584;5.188;2024-02-26T08:52:17;100180.16;;;11.88;64.45
83273;BME280;73177;51.584;5.188;2024-02-26T08:54:42;100172.03;;;11.57;65.42
83273;BME280;73177;51.584;5.188;2024-02-26T08:57:07;100180.91;;;11.73;65.39
83273;BME280;73177;51.584;5.188;2024-02-26T08:59:35;100173.03;;;11.54;65.99
83273;BME280;73177;51.584;5.188;2024-02-26T09:02:00;100182.31;;;11.61;64.81
83273;BME280;73177;51.584;5.188;2024-02-26T09:04:26;100182.31;;;12.14;64.62
83273;BME280;73177;51.584;5.188;2024-02-26T09:06:52;100189.69;;;11.36;66.81
83273;BME280;73177;51.584;5.188;2024-02-26T09:09:19;100200.19;;;11.36;66.06
83273;BME280;73177;51.584;5.188;2024-02-26T09:11:44;100202.56;;;11.78;66.29
83273;BME280;73177;51.584;5.188;2024-02-26T09:14:10;100204.41;;;11.93;64.50
83273;BME280;73177;51.584;5.188;2024-02-26T09:16:35;100208.34;;;11.48;65.97
83273;BME280;73177;51.584;5.188;2024-02-26T09:19:01;100218.88;;;11.67;65.75
83273;BME280;73177;51.584;5.188;2024-02-26T09:21:28;100214.56;;;11.65;66.41
83273;BME280;73177;51.584;5.188;2024-02-26T09:23:53;100212.50;;;10.98;65.41
83273;BME280;73177;51.584;5.188;2024-02-26T09:26:19;100220.00;;;11.24;66.82
83273;BME280;73177;51.584;5.188;2024-02-26T09:28:44;100226.66;;;11.69;66.03
83273;BME280;73177;51.584;5.188;2024-02-26T09:31:10;100227.03;;;11.42;66.33
83273;BME280;73177;51.584;5.188;2024-02-26T09:33:36;100231.38;;;11.25;67.02
83273;BME280;73177;51.584;5.188;2024-02-26T09:36:01;100240.94;;;11.44;66.94
83273;BME280;73177;51.584;5.188;2024-02-26T09:38:27;100239.41;;;11.03;66.34
83273;BME280;73177;51.584;5.188;2024-02-26T09:40:53;100240.09;;;11.25;66.85
83273;BME280;73177;51.584;5.188;2024-02-26T09:43:20;100247.41;;;11.19;68.11
83273;BME280;73177;51.584;5.188;2024-02-26T09:45:47;100240.44;;;11.18;67.54
83273;BME280;73177;51.584;5.188;2024-02-26T09:48:14;100243.28;;;11.51;67.50
83273;BME280;73177;51.584;5.188;2024-02-26T09:50:42;100251.94;;;11.34;67.64
83273;BME280;73177;51.584;5.188;2024-02-26T09:53:08;100251.38;;;11.83;67.07
83273;BME280;73177;51.584;5.188;2024-02-26T09:55:35;100246.84;;;11.31;66.94
83273;BME280;73177;51.584;5.188;2024-02-26T09:58:01;100261.19;;;11.42;66.79
83273;BME280;73177;51.584;5.188;2024-02-26T10:00:30;100280.75;;;11.17;66.49
83273;BME280;73177;51.584;5.188;2024-02-26T10:03:02;100276.50;;;11.14;67.80
83273;BME280;73177;51.584;5.188;2024-02-26T10:05:29;100284.31;;;11.34;67.58
83273;BME280;73177;51.584;5.188;2024-02-26T10:07:56;100281.94;;;11.67;68.00
83273;BME280;73177;51.584;5.188;2024-02-26T10:10:22;100283.22;;;11.20;67.88
83273;BME280;73177;51.584;5.188;2024-02-26T10:12:48;100310.56;;;11.16;69.09
83273;BME280;73177;51.584;5.188;2024-02-26T10:15:14;100303.53;;;11.16;68.25
83273;BME280;73177;51.584;5.188;2024-02-26T10:17:40;100308.31;;;10.28;71.23
83273;BME280;73177;51.584;5.188;2024-02-26T10:20:18;100300.06;;;11.16;69.72
83273;BME280;73177;51.584;5.188;2024-02-26T10:22:46;100303.19;;;11.24;67.66
83273;BME280;73177;51.584;5.188;2024-02-26T10:25:12;100317.31;;;11.59;66.51
83273;BME280;73177;51.584;5.188;2024-02-26T10:27:37;100325.00;;;11.82;67.04
83273;BME280;73177;51.584;5.188;2024-02-26T10:30:16;100321.53;;;11.81;66.45
83273;BME280;73177;51.584;5.188;2024-02-26T10:32:45;100325.84;;;11.45;67.33
83273;BME280;73177;51.584;5.188;2024-02-26T10:35:15;100334.44;;;12.04;65.58
83273;BME280;73177;51.584;5.188;2024-02-26T10:37:42;100335.09;;;11.54;66.75
83273;BME280;73177;51.584;5.188;2024-02-26T10:40:12;100338.88;;;12.38;64.18
83273;BME280;73177;51.584;5.188;2024-02-26T10:42:38;100341.31;;;12.07;65.24
83273;BME280;73177;51.584;5.188;2024-02-26T10:45:07;100353.16;;;12.68;64.48
83273;BME280;73177;51.584;5.188;2024-02-26T10:47:34;100353.72;;;12.22;63.77
83273;BME280;73177;51.584;5.188;2024-02-26T10:50:02;100365.53;;;12.83;62.80
83273;BME280;73177;51.584;5.188;2024-02-26T10:52:33;100356.88;;;12.11;64.47
83273;BME280;73177;51.584;5.188;2024-02-26T10:55:03;100370.81;;;12.66;63.47
83273;BME280;73177;51.584;5.188;2024-02-26T10:57:39;100364.41;;;11.44;66.25
83273;BME280;73177;51.584;5.188;2024-02-26T11:00:05;100369.38;;;11.51;66.94
83273;BME280;73177;51.584;5.188;2024-02-26T11:02:34;100370.06;;;12.29;65.54
83273;BME280;73177;51.584;5.188;2024-02-26T11:05:03;100388.66;;;11.31;66.70
83273;BME280;73177;51.584;5.188;2024-02-26T11:07:34;100382.19;;;11.95;65.57
83273;BME280;73177;51.584;5.188;2024-02-26T11:10:01;100377.22;;;12.61;65.32
83273;BME280;73177;51.584;5.188;2024-02-26T11:12:29;100391.94;;;12.29;65.16
83273;BME280;73177;51.584;5.188;2024-02-26T11:14:56;100384.28;;;12.60;65.46
83273;BME280;73177;51.584;5.188;2024-02-26T11:17:26;100385.50;;;12.70;64.33
83273;BME280;73177;51.584;5.188;2024-02-26T11:19:53;100403.22;;;11.95;65.45
83273;BME280;73177;51.584;5.188;2024-02-26T11:22:20;100394.13;;;11.84;65.86
83273;BME280;73177;51.584;5.188;2024-02-26T11:24:48;100403.44;;;11.72;65.83
83273;BME280;73177;51.584;5.188;2024-02-26T11:27:15;100401.59;;;11.35;68.43
83273;BME280;73177;51.584;5.188;2024-02-26T11:29:50;100405.13;;;11.34;67.67
83273;BME280;73177;51.584;5.188;2024-02-26T11:32:17;100404.22;;;11.93;67.42
83273;BME280;73177;51.584;5.188;2024-02-26T11:34:43;100400.31;;;11.83;66.92
83273;BME280;73177;51.584;5.188;2024-02-26T11:37:19;100407.22;;;11.46;67.22
83273;BME280;73177;51.584;5.188;2024-02-26T11:39:45;100414.06;;;11.30;68.73
83273;BME280;73177;51.584;5.188;2024-02-26T11:42:14;100416.63;;;10.92;69.25
83273;BME280;73177;51.584;5.188;2024-02-26T11:44:40;100405.91;;;11.36;68.49
83273;BME280;73177;51.584;5.188;2024-02-26T11:47:11;100408.44;;;11.19;68.72
83273;BME280;73177;51.584;5.188;2024-02-26T11:49:37;100414.69;;;11.56;66.90
83273;BME280;73177;51.584;5.188;2024-02-26T11:52:07;100405.00;;;11.95;67.48
83273;BME280;73177;51.584;5.188;2024-02-26T11:54:52;100403.94;;;11.99;66.95
83273;BME280;73177;51.584;5.188;2024-02-26T11:57:27;100419.06;;;12.12;66.46
83273;BME280;73177;51.584;5.188;2024-02-26T12:00:13;100418.22;;;11.93;66.07
83273;BME280;73177;51.584;5.188;2024-02-26T12:02:51;100419.91;;;12.13;66.79
83273;BME280;73177;51.584;5.188;2024-02-26T12:05:23;100415.50;;;10.97;68.00
83273;BME280;73177;51.584;5.188;2024-02-26T12:07:53;100424.91;;;11.62;68.69
83273;BME280;73177;51.584;5.188;2024-02-26T12:12:55;100439.81;;;11.61;69.40
83273;BME280;73177;51.584;5.188;2024-02-26T12:15:23;100430.53;;;11.34;69.00
83273;BME280;73177;51.584;5.188;2024-02-26T12:17:49;100450.72;;;11.72;69.10
83273;BME280;73177;51.584;5.188;2024-02-26T12:20:17;100449.63;;;11.58;69.36
83273;BME280;73177;51.584;5.188;2024-02-26T12:22:45;100453.47;;;11.10;69.63
83273;BME280;73177;51.584;5.188;2024-02-26T12:25:13;100462.34;;;10.86;70.20
83273;BME280;73177;51.584;5.188;2024-02-26T12:27:38;100460.16;;;11.96;68.69
83273;BME280;73177;51.584;5.188;2024-02-26T12:30:04;100463.41;;;11.63;69.07
83273;BME280;73177;51.584;5.188;2024-02-26T12:32:30;100478.78;;;11.11;69.18
83273;BME280;73177;51.584;5.188;2024-02-26T12:34:56;100475.50;;;11.67;68.18
83273;BME280;73177;51.584;5.188;2024-02-26T12:37:22;100481.22;;;11.16;68.34
83273;BME280;73177;51.584;5.188;2024-02-26T12:39:47;100482.72;;;11.62;69.02
83273;BME280;73177;51.584;5.188;2024-02-26T12:42:13;100488.75;;;11.84;67.98
83273;BME280;73177;51.584;5.188;2024-02-26T12:44:39;100491.25;;;10.64;70.94
83273;BME280;73177;51.584;5.188;2024-02-26T12:47:05;100497.72;;;10.98;70.02
83273;BME280;73177;51.584;5.188;2024-02-26T12:49:31;100502.41;;;11.31;69.38
83273;BME280;73177;51.584;5.188;2024-02-26T12:51:56;100504.03;;;11.35;69.58